sensor_id;sensor_type;location;lat;lon;timestamp;P1;durP1;ratioP1;P2;durP2;ratioP2
56102;SDS011;41970;48.774;9.280;2024-03-23T00:53:09;7.33;;;5.40;;
56102;SDS011;41970;48.774;9.280;2024-03-23T00:55:35;6.20;;;5.10;;
56102;SDS011;41970;48.774;9.280;2024-03-23T00:58:01;6.23;;;5.03;;
56102;SDS011;41970;48.774;9.280;2024-03-23T01:00:27;9.10;;;5.90;;
56102;SDS011;41970;48.774;9.280;2024-03-23T01:02:53;7.73;;;6.00;;
56102;SDS011;41970;48.774;9.280;2024-03-23T01:05:18;7.10;;;5.73;;
56102;SDS011;41970;48.774;9.280;2024-03-23T01:07:44;6.93;;;6.20;;
56102;SDS011;41970;48.774;9.280;2024-03-23T01:10:10;12.23;;;7.37;;
56102;SDS011;41970;48.774;9.280;2024-03-23T01:12:35;8.77;;;7.87;;
56102;SDS011;41970;48.774;9.280;2024-03-23T01:15:01;6.37;;;5.77;;
56102;SDS011;41970;48.774;9.280;2024-03-23T01:17:27;6.90;;;6.30;;
56102;SDS011;41970;48.774;9.280;2024-03-23T01:19:53;7.13;;;6.07;;
56102;SDS011;41970;48.774;9.280;2024-03-23T01:22:19;7.87;;;5.93;;
56102;SDS011;41970;48.774;9.280;2024-03-23T01:24:45;9.93;;;6.30;;
56102;SDS011;41970;48.774;9.280;2024-03-23T01:27:10;8.80;;;5.80;;
56102;SDS011;41970;48.774;9.280;2024-03-23T01:29:36;6.00;;;5.40;;
56102;SDS011;41970;48.774;9.280;2024-03-23T01:32:02;7.30;;;6.60;;
56102;SDS011;41970;48.774;9.280;2024-03-23T01:34:28;6.43;;;5.13;;
56102;SDS011;41970;48.774;9.280;2024-03-23T01:36:53;6.33;;;4.80;;
56102;SDS011;41970;48.774;9.280;2024-03-23T01:39:19;5.73;;;5.03;;
56102;SDS011;41970;48.774;9.280;2024-03-23T01:41:45;6.30;;;5.47;;
56102;SDS011;41970;48.774;9.280;2024-03-23T01:44:10;7.90;;;4.87;;
56102;SDS011;41970;48.774;9.280;2024-03-23T01:46:39;9.00;;;5.20;;
56102;SDS011;41970;48.774;9.280;2024-03-23T01:49:06;6.47;;;4.47;;
56102;SDS011;41970;48.774;9.280;2024-03-23T01:51:33;5.30;;;4.80;;
56102;SDS011;41970;48.774;9.280;2024-03-23T01:54:00;6.40;;;4.30;;
56102;SDS011;41970;48.774;9.280;2024-03-23T01:56:32;6.97;;;5.30;;
56102;SDS011;41970;48.774;9.280;2024-03-23T01:59:00;4.33;;;3.80;;
56102;SDS011;41970;48.774;9.280;2024-03-23T02:01:27;4.37;;;3.93;;
56102;SDS011;41970;48.774;9.280;2024-03-23T02:03:53;5.40;;;3.93;;
56102;SDS011;41970;48.774;9.280;2024-03-23T02:06:19;4.17;;;3.23;;
56102;SDS011;41970;48.774;9.280;2024-03-23T02:08:45;4.40;;;3.40;;
56102;SDS011;41970;48.774;9.280;2024-03-23T02:11:11;5.20;;;3.67;;
56102;SDS011;41970;48.774;9.280;2024-03-23T02:13:37;3.73;;;3.07;;
56102;SDS011;41970;48.774;9.280;2024-03-23T02:16:03;3.00;;;2.70;;
56102;SDS011;41970;48.774;9.280;2024-03-23T02:18:31;3.03;;;2.70;;
56102;SDS011;41970;48.774;9.280;2024-03-23T02:20:58;5.43;;;2.87;;
56102;SDS011;41970;48.774;9.280;2024-03-23T02:23:24;5.43;;;3.07;;
56102;SDS011;41970;48.774;9.280;2024-03-23T02:25:50;2.80;;;2.60;;
56102;SDS011;41970;48.774;9.280;2024-03-23T02:28:16;3.27;;;2.80;;
56102;SDS011;41970;48.774;9.280;2024-03-23T02:30:42;4.53;;;3.90;;
56102;SDS011;41970;48.774;9.280;2024-03-23T02:33:09;2.53;;;2.33;;
56102;SDS011;41970;48.774;9.280;2024-03-23T02:35:35;4.10;;;2.87;;
56102;SDS011;41970;48.774;9.280;2024-03-23T02:38:01;3.67;;;3.27;;
56102;SDS011;41970;48.774;9.280;2024-03-23T02:40:27;3.90;;;3.00;;
56102;SDS011;41970;48.774;9.280;2024-03-23T02:42:53;3.80;;;2.60;;
56102;SDS011;41970;48.774;9.280;2024-03-23T02:45:19;3.93;;;2.97;;
56102;SDS011;41970;48.774;9.280;2024-03-23T02:47:44;2.60;;;2.40;;
56102;SDS011;41970;48.774;9.280;2024-03-23T02:50:11;2.27;;;2.07;;
56102;SDS011;41970;48.774;9.280;2024-03-23T02:52:37;3.70;;;2.93;;
56102;SDS011;41970;48.774;9.280;2024-03-23T02:55:03;3.67;;;2.70;;
56102;SDS011;41970;48.774;9.280;2024-03-23T02:57:30;2.90;;;2.40;;
56102;SDS011;41970;48.774;9.280;2024-03-23T02:59:55;2.97;;;2.53;;
56102;SDS011;41970;48.774;9.280;2024-03-23T03:02:21;4.80;;;3.10;;
56102;SDS011;41970;48.774;9.280;2024-03-23T03:04:47;3.83;;;3.17;;
56102;SDS011;41970;48.774;9.280;2024-03-23T03:07:13;4.50;;;3.07;;
56102;SDS011;41970;48.774;9.280;2024-03-23T03:09:39;3.23;;;2.70;;
56102;SDS011;41970;48.774;9.280;2024-03-23T03:12:05;4.60;;;2.70;;
56102;SDS011;41970;48.774;9.280;2024-03-23T03:14:31;2.77;;;2.50;;
56102;SDS011;41970;48.774;9.280;2024-03-23T03:16:58;3.30;;;2.37;;
56102;SDS011;41970;48.774;9.280;2024-03-23T03:19:23;3.50;;;2.30;;
56102;SDS011;41970;48.774;9.280;2024-03-23T03:21:49;2.60;;;2.40;;
56102;SDS011;41970;48.774;9.280;2024-03-23T03:24:14;2.97;;;2.60;;
56102;SDS011;41970;48.774;9.280;2024-03-23T03:26:40;5.80;;;2.70;;
56102;SDS011;41970;48.774;9.280;2024-03-23T03:29:06;2.90;;;2.60;;
56102;SDS011;41970;48.774;9.280;2024-03-23T03:31:32;4.10;;;2.60;;
56102;SDS011;41970;48.774;9.280;2024-03-23T03:33:57;3.97;;;3.00;;
56102;SDS011;41970;48.774;9.280;2024-03-23T03:36:23;3.30;;;3.00;;
56102;SDS011;41970;48.774;9.280;2024-03-23T03:38:49;4.63;;;3.00;;
56102;SDS011;41970;48.774;9.280;2024-03-23T03:41:15;6.43;;;3.17;;
56102;SDS011;41970;48.774;9.280;2024-03-23T03:43:41;4.20;;;2.90;;
56102;SDS011;41970;48.774;9.280;2024-03-23T03:46:06;3.87;;;3.40;;
56102;SDS011;41970;48.774;9.280;2024-03-23T03:48:36;5.90;;;3.13;;
56102;SDS011;41970;48.774;9.280;2024-03-23T03:51:02;3.90;;;2.70;;
56102;SDS011;41970;48.774;9.280;2024-03-23T03:53:28;2.40;;;2.20;;
56102;SDS011;41970;48.774;9.280;2024-03-23T03:55:54;3.13;;;2.83;;
56102;SDS011;41970;48.774;9.280;2024-03-23T03:58:20;3.87;;;2.40;;
56102;SDS011;41970;48.774;9.280;2024-03-23T04:00:45;4.03;;;3.67;;
56102;SDS011;41970;48.774;9.280;2024-03-23T04:03:11;3.50;;;3.20;;
56102;SDS011;41970;48.774;9.280;2024-03-23T04:05:37;5.47;;;3.53;;
56102;SDS011;41970;48.774;9.280;2024-03-23T04:08:03;2.80;;;2.50;;
56102;SDS011;41970;48.774;9.280;2024-03-23T04:10:29;5.53;;;2.57;;
56102;SDS011;41970;48.774;9.280;2024-03-23T04:12:55;3.63;;;2.73;;
56102;SDS011;41970;48.774;9.280;2024-03-23T04:15:21;3.07;;;2.60;;
56102;SDS011;41970;48.774;9.280;2024-03-23T04:17:47;3.23;;;2.83;;
56102;SDS011;41970;48.774;9.280;2024-03-23T04:20:12;4.10;;;2.70;;
56102;SDS011;41970;48.774;9.280;2024-03-23T04:22:41;2.97;;;2.37;;
56102;SDS011;41970;48.774;9.280;2024-03-23T04:25:08;3.37;;;3.07;;
56102;SDS011;41970;48.774;9.280;2024-03-23T04:27:38;5.60;;;2.63;;
56102;SDS011;41970;48.774;9.280;2024-03-23T04:30:04;4.20;;;2.53;;
56102;SDS011;41970;48.774;9.280;2024-03-23T04:32:35;5.67;;;3.00;;
56102;SDS011;41970;48.774;9.280;2024-03-23T04:35:01;3.00;;;2.60;;
56102;SDS011;41970;48.774;9.280;2024-03-23T04:37:30;3.77;;;3.17;;
56102;SDS011;41970;48.774;9.280;2024-03-23T04:39:59;5.13;;;4.73;;
56102;SDS011;41970;48.774;9.280;2024-03-23T04:42:26;6.40;;;5.67;;
56102;SDS011;41970;48.774;9.280;2024-03-23T04:44:52;7.27;;;5.07;;
56102;SDS011;41970;48.774;9.280;2024-03-23T04:47:18;4.30;;;3.90;;
56102;SDS011;41970;48.774;9.280;2024-03-23T04:49:44;4.63;;;4.23;;
56102;SDS011;41970;48.774;9.280;2024-03-23T04:52:10;4.70;;;3.20;;
56102;SDS011;41970;48.774;9.280;2024-03-23T04:54:36;4.73;;;3.30;;
56102;SDS011;41970;48.774;9.280;2024-03-23T04:57:02;5.17;;;3.90;;
56102;SDS011;41970;48.774;9.280;2024-03-23T04:59:28;4.37;;;3.90;;
56102;SDS011;41970;48.774;9.280;2024-03-23T05:01:53;4.70;;;4.30;;
56102;SDS011;41970;48.774;9.280;2024-03-23T05:04:19;10.47;;;4.73;;
56102;SDS011;41970;48.774;9.280;2024-03-23T05:06:45;5.80;;;5.20;;
56102;SDS011;41970;48.774;9.280;2024-03-23T05:09:11;7.30;;;6.60;;
56102;SDS011;41970;48.774;9.280;2024-03-23T05:11:40;7.10;;;6.50;;
56102;SDS011;41970;48.774;9.280;2024-03-23T05:14:10;8.13;;;6.03;;
56102;SDS011;41970;48.774;9.280;2024-03-23T05:16:41;7.90;;;7.03;;
56102;SDS011;41970;48.774;9.280;2024-03-23T05:19:07;8.77;;;5.93;;
56102;SDS011;41970;48.774;9.280;2024-03-23T05:21:33;8.43;;;7.57;;
56102;SDS011;41970;48.774;9.280;2024-03-23T05:23:59;6.93;;;6.23;;
56102;SDS011;41970;48.774;9.280;2024-03-23T05:26:24;10.70;;;7.30;;
56102;SDS011;41970;48.774;9.280;2024-03-23T05:28:50;10.00;;;8.10;;
56102;SDS011;41970;48.774;9.280;2024-03-23T05:31:26;8.37;;;6.87;;
56102;SDS011;41970;48.774;9.280;2024-03-23T05:33:52;12.87;;;9.07;;
56102;SDS011;41970;48.774;9.280;2024-03-23T05:36:18;9.90;;;8.10;;
56102;SDS011;41970;48.774;9.280;2024-03-23T05:38:44;10.60;;;9.47;;
56102;SDS011;41970;48.774;9.280;2024-03-23T05:41:10;9.83;;;8.83;;
56102;SDS011;41970;48.774;9.280;2024-03-23T05:43:35;12.17;;;9.83;;
56102;SDS011;41970;48.774;9.280;2024-03-23T05:46:01;16.60;;;8.83;;
56102;SDS011;41970;48.774;9.280;2024-03-23T05:48:27;13.10;;;11.73;;
56102;SDS011;41970;48.774;9.280;2024-03-23T05:50:54;11.60;;;10.10;;
56102;SDS011;41970;48.774;9.280;2024-03-23T05:53:20;13.37;;;10.50;;
56102;SDS011;41970;48.774;9.280;2024-03-23T05:55:46;14.93;;;11.90;;
56102;SDS011;41970;48.774;9.280;2024-03-23T05:58:14;13.87;;;10.73;;
56102;SDS011;41970;48.774;9.280;2024-03-23T06:00:40;15.50;;;10.40;;
56102;SDS011;41970;48.774;9.280;2024-03-23T06:03:07;9.17;;;8.13;;
56102;SDS011;41970;48.774;9.280;2024-03-23T06:05:33;10.50;;;7.60;;
56102;SDS011;41970;48.774;9.280;2024-03-23T06:07:59;7.50;;;6.40;;
56102;SDS011;41970;48.774;9.280;2024-03-23T06:10:24;13.03;;;7.37;;
56102;SDS011;41970;48.774;9.280;2024-03-23T06:12:50;7.67;;;5.80;;
56102;SDS011;41970;48.774;9.280;2024-03-23T06:15:17;5.27;;;3.70;;
56102;SDS011;41970;48.774;9.280;2024-03-23T06:17:47;4.77;;;3.80;;
56102;SDS011;41970;48.774;9.280;2024-03-23T06:20:13;4.60;;;3.77;;
56102;SDS011;41970;48.774;9.280;2024-03-23T06:22:39;4.10;;;3.03;;
56102;SDS011;41970;48.774;9.280;2024-03-23T06:25:05;6.57;;;4.57;;
56102;SDS011;41970;48.774;9.280;2024-03-23T06:27:32;4.43;;;3.83;;
56102;SDS011;41970;48.774;9.280;2024-03-23T06:29:58;3.83;;;3.40;;
56102;SDS011;41970;48.774;9.280;2024-03-23T06:32:25;3.17;;;2.73;;
56102;SDS011;41970;48.774;9.280;2024-03-23T06:34:50;4.47;;;3.37;;
56102;SDS011;41970;48.774;9.280;2024-03-23T06:37:16;11.23;;;3.00;;
56102;SDS011;41970;48.774;9.280;2024-03-23T06:39:42;3.63;;;3.20;;
56102;SDS011;41970;48.774;9.280;2024-03-23T06:42:07;5.10;;;3.00;;
56102;SDS011;41970;48.774;9.280;2024-03-23T06:44:33;4.03;;;3.03;;
56102;SDS011;41970;48.774;9.280;2024-03-23T06:46:59;4.43;;;2.03;;
56102;SDS011;41970;48.774;9.280;2024-03-23T06:49:25;1.83;;;1.67;;
56102;SDS011;41970;48.774;9.280;2024-03-23T06:51:51;2.20;;;1.70;;
56102;SDS011;41970;48.774;9.280;2024-03-23T06:54:17;2.17;;;1.80;;
56102;SDS011;41970;48.774;9.280;2024-03-23T06:56:44;1.70;;;1.57;;
56102;SDS011;41970;48.774;9.280;2024-03-23T06:59:09;1.60;;;1.20;;
56102;SDS011;41970;48.774;9.280;2024-03-23T07:01:35;1.73;;;1.20;;
56102;SDS011;41970;48.774;9.280;2024-03-23T07:04:01;1.80;;;1.00;;
56102;SDS011;41970;48.774;9.280;2024-03-23T07:06:27;2.23;;;1.10;;
56102;SDS011;41970;48.774;9.280;2024-03-23T07:08:53;1.37;;;1.00;;
56102;SDS011;41970;48.774;9.280;2024-03-23T07:11:19;1.90;;;0.90;;
56102;SDS011;41970;48.774;9.280;2024-03-23T07:13:54;1.67;;;1.10;;
56102;SDS011;41970;48.774;9.280;2024-03-23T07:16:20;2.47;;;1.30;;
56102;SDS011;41970;48.774;9.280;2024-03-23T07:18:46;1.53;;;1.20;;
56102;SDS011;41970;48.774;9.280;2024-03-23T07:21:12;1.73;;;0.90;;
56102;SDS011;41970;48.774;9.280;2024-03-23T07:23:41;1.10;;;0.90;;
56102;SDS011;41970;48.774;9.280;2024-03-23T07:26:10;1.00;;;0.73;;
56102;SDS011;41970;48.774;9.280;2024-03-23T07:28:36;3.00;;;1.17;;
56102;SDS011;41970;48.774;9.280;2024-03-23T07:31:03;1.10;;;0.80;;
56102;SDS011;41970;48.774;9.280;2024-03-23T07:33:29;1.00;;;0.80;;
56102;SDS011;41970;48.774;9.280;2024-03-23T07:35:56;2.23;;;0.80;;
56102;SDS011;41970;48.774;9.280;2024-03-23T07:38:21;1.40;;;0.87;;
56102;SDS011;41970;48.774;9.280;2024-03-23T07:40:48;1.00;;;0.77;;
56102;SDS011;41970;48.774;9.280;2024-03-23T07:43:21;1.40;;;0.67;;
56102;SDS011;41970;48.774;9.280;2024-03-23T07:45:56;1.20;;;0.87;;
56102;SDS011;41970;48.774;9.280;2024-03-23T07:48:21;1.37;;;0.80;;
56102;SDS011;41970;48.774;9.280;2024-03-23T07:53:25;9.33;;;3.93;;
56102;SDS011;41970;48.774;9.280;2024-03-23T07:55:54;1.30;;;0.97;;
56102;SDS011;41970;48.774;9.280;2024-03-23T07:58:24;1.67;;;0.93;;
56102;SDS011;41970;48.774;9.280;2024-03-23T08:00:51;1.40;;;1.00;;
56102;SDS011;41970;48.774;9.280;2024-03-23T08:03:18;1.10;;;0.90;;
56102;SDS011;41970;48.774;9.280;2024-03-23T08:05:45;1.17;;;0.77;;
56102;SDS011;41970;48.774;9.280;2024-03-23T08:08:11;1.30;;;0.90;;
56102;SDS011;41970;48.774;9.280;2024-03-23T08:10:37;1.00;;;0.80;;
56102;SDS011;41970;48.774;9.280;2024-03-23T08:13:16;1.43;;;1.00;;
56102;SDS011;41970;48.774;9.280;2024-03-23T08:15:42;1.50;;;1.10;;
56102;SDS011;41970;48.774;9.280;2024-03-23T08:18:09;1.57;;;0.97;;
56102;SDS011;41970;48.774;9.280;2024-03-23T08:20:35;2.13;;;1.37;;
56102;SDS011;41970;48.774;9.280;2024-03-23T08:23:01;1.57;;;1.10;;
56102;SDS011;41970;48.774;9.280;2024-03-23T08:25:27;1.60;;;1.30;;
56102;SDS011;41970;48.774;9.280;2024-03-23T08:27:55;1.80;;;1.40;;
56102;SDS011;41970;48.774;9.280;2024-03-23T08:30:21;3.93;;;2.40;;
56102;SDS011;41970;48.774;9.280;2024-03-23T08:32:47;1.47;;;1.13;;
56102;SDS011;41970;48.774;9.280;2024-03-23T08:35:13;2.00;;;1.40;;
56102;SDS011;41970;48.774;9.280;2024-03-23T08:37:39;2.30;;;1.60;;
56102;SDS011;41970;48.774;9.280;2024-03-23T08:40:05;1.40;;;1.17;;
56102;SDS011;41970;48.774;9.280;2024-03-23T08:42:31;2.90;;;1.43;;
56102;SDS011;41970;48.774;9.280;2024-03-23T08:44:57;1.33;;;1.10;;
56102;SDS011;41970;48.774;9.280;2024-03-23T08:47:23;2.03;;;1.27;;
56102;SDS011;41970;48.774;9.280;2024-03-23T08:49:48;1.17;;;0.80;;
56102;SDS011;41970;48.774;9.280;2024-03-23T08:52:14;1.47;;;1.10;;
56102;SDS011;41970;48.774;9.280;2024-03-23T08:54:40;1.70;;;1.10;;
56102;SDS011;41970;48.774;9.280;2024-03-23T08:57:06;1.70;;;1.23;;
56102;SDS011;41970;48.774;9.280;2024-03-23T08:59:32;2.00;;;1.33;;
56102;SDS011;41970;48.774;9.280;2024-03-23T09:01:58;3.70;;;1.70;;
56102;SDS011;41970;48.774;9.280;2024-03-23T09:04:23;4.23;;;2.37;;
56102;SDS011;41970;48.774;9.280;2024-03-23T09:06:49;1.60;;;1.47;;
56102;SDS011;41970;48.774;9.280;2024-03-23T09:09:16;4.20;;;2.10;;
56102;SDS011;41970;48.774;9.280;2024-03-23T09:11:42;4.33;;;1.90;;
56102;SDS011;41970;48.774;9.280;2024-03-23T09:14:07;5.93;;;2.87;;
56102;SDS011;41970;48.774;9.280;2024-03-23T09:16:34;4.83;;;2.40;;
56102;SDS011;41970;48.774;9.280;2024-03-23T09:19:00;2.37;;;1.87;;
56102;SDS011;41970;48.774;9.280;2024-03-23T09:21:26;8.70;;;2.27;;
56102;SDS011;41970;48.774;9.280;2024-03-23T09:23:51;4.90;;;2.70;;
56102;SDS011;41970;48.774;9.280;2024-03-23T09:26:17;2.67;;;2.37;;
56102;SDS011;41970;48.774;9.280;2024-03-23T09:28:43;3.23;;;2.03;;
56102;SDS011;41970;48.774;9.280;2024-03-23T09:31:09;4.20;;;2.20;;
56102;SDS011;41970;48.774;9.280;2024-03-23T09:33:39;4.00;;;2.80;;
56102;SDS011;41970;48.774;9.280;2024-03-23T09:36:05;4.17;;;2.20;;
56102;SDS011;41970;48.774;9.280;2024-03-23T09:38:32;7.13;;;3.23;;
56102;SDS011;41970;48.774;9.280;2024-03-23T09:40:58;4.50;;;2.10;;
56102;SDS011;41970;48.774;9.280;2024-03-23T09:43:24;2.80;;;2.40;;
56102;SDS011;41970;48.774;9.280;2024-03-23T09:45:50;3.80;;;2.00;;
56102;SDS011;41970;48.774;9.280;2024-03-23T09:48:17;3.23;;;2.33;;
56102;SDS011;41970;48.774;9.280;2024-03-23T09:50:44;4.70;;;2.47;;
56102;SDS011;41970;48.774;9.280;2024-03-23T09:53:10;3.20;;;2.17;;
56102;SDS011;41970;48.774;9.280;2024-03-23T09:55:38;5.20;;;2.30;;
56102;SDS011;41970;48.774;9.280;2024-03-23T09:58:07;3.77;;;2.57;;
56102;SDS011;41970;48.774;9.280;2024-03-23T10:00:37;4.47;;;2.57;;
56102;SDS011;41970;48.774;9.280;2024-03-23T10:03:04;3.27;;;2.70;;
56102;SDS011;41970;48.774;9.280;2024-03-23T10:05:31;7.20;;;3.07;;
56102;SDS011;41970;48.774;9.280;2024-03-23T10:07:59;22.07;;;6.50;;
56102;SDS011;41970;48.774;9.280;2024-03-23T10:10:25;5.40;;;2.67;;
56102;SDS011;41970;48.774;9.280;2024-03-23T10:12:51;4.27;;;2.53;;
56102;SDS011;41970;48.774;9.280;2024-03-23T10:15:24;5.23;;;3.03;;
56102;SDS011;41970;48.774;9.280;2024-03-23T10:17:50;5.17;;;3.03;;
56102;SDS011;41970;48.774;9.280;2024-03-23T10:20:20;5.90;;;3.80;;
56102;SDS011;41970;48.774;9.280;2024-03-23T10:22:50;10.30;;;4.67;;
56102;SDS011;41970;48.774;9.280;2024-03-23T10:25:24;5.63;;;3.47;;
56102;SDS011;41970;48.774;9.280;2024-03-23T10:27:59;6.60;;;3.90;;
56102;SDS011;41970;48.774;9.280;2024-03-23T10:30:28;6.23;;;2.50;;
56102;SDS011;41970;48.774;9.280;2024-03-23T10:33:07;5.00;;;2.97;;
56102;SDS011;41970;48.774;9.280;2024-03-23T10:35:34;4.67;;;2.47;;
56102;SDS011;41970;48.774;9.280;2024-03-23T10:38:00;5.07;;;3.30;;
56102;SDS011;41970;48.774;9.280;2024-03-23T10:40:29;4.97;;;2.90;;
56102;SDS011;41970;48.774;9.280;2024-03-23T10:42:56;6.03;;;3.10;;
56102;SDS011;41970;48.774;9.280;2024-03-23T10:45:23;4.20;;;2.80;;
56102;SDS011;41970;48.774;9.280;2024-03-23T10:47:49;4.97;;;3.03;;
56102;SDS011;41970;48.774;9.280;2024-03-23T10:50:15;5.50;;;3.10;;
56102;SDS011;41970;48.774;9.280;2024-03-23T10:52:41;4.60;;;2.40;;
56102;SDS011;41970;48.774;9.280;2024-03-23T10:55:12;6.93;;;2.47;;
56102;SDS011;41970;48.774;9.280;2024-03-23T10:57:42;4.60;;;2.90;;
56102;SDS011;41970;48.774;9.280;2024-03-23T11:00:13;12.57;;;3.17;;
56102;SDS011;41970;48.774;9.280;2024-03-23T11:02:39;9.20;;;3.20;;
56102;SDS011;41970;48.774;9.280;2024-03-23T11:05:27;6.70;;;2.50;;
56102;SDS011;41970;48.774;9.280;2024-03-23T11:07:51;4.70;;;2.60;;
56102;SDS011;41970;48.774;9.280;2024-03-23T11:10:27;5.63;;;3.57;;
56102;SDS011;41970;48.774;9.280;2024-03-23T11:12:55;6.33;;;3.60;;
56102;SDS011;41970;48.774;9.280;2024-03-23T11:15:21;5.40;;;3.30;;
56102;SDS011;41970;48.774;9.280;2024-03-23T11:18:03;4.20;;;2.63;;
56102;SDS011;41970;48.774;9.280;2024-03-23T11:20:37;4.37;;;2.40;;
56102;SDS011;41970;48.774;9.280;2024-03-23T11:23:03;5.50;;;2.40;;
56102;SDS011;41970;48.774;9.280;2024-03-23T11:25:29;3.23;;;2.30;;
56102;SDS011;41970;48.774;9.280;2024-03-23T11:27:56;3.03;;;2.10;;
56102;SDS011;41970;48.774;9.280;2024-03-23T11:30:34;2.67;;;2.10;;
56102;SDS011;41970;48.774;9.280;2024-03-23T11:33:02;2.77;;;2.10;;
56102;SDS011;41970;48.774;9.280;2024-03-23T11:35:28;2.43;;;2.00;;
56102;SDS011;41970;48.774;9.280;2024-03-23T11:38:14;3.60;;;2.80;;
56102;SDS011;41970;48.774;9.280;2024-03-23T11:40:46;3.53;;;2.60;;
56102;SDS011;41970;48.774;9.280;2024-03-23T11:43:13;3.70;;;2.70;;
56102;SDS011;41970;48.774;9.280;2024-03-23T11:45:42;5.67;;;2.70;;
56102;SDS011;41970;48.774;9.280;2024-03-23T11:48:12;5.10;;;2.57;;
56102;SDS011;41970;48.774;9.280;2024-03-23T11:50:42;3.43;;;2.80;;
56102;SDS011;41970;48.774;9.280;2024-03-23T11:55:42;3.13;;;2.40;;
56102;SDS011;41970;48.774;9.280;2024-03-23T11:58:21;3.10;;;2.27;;
56102;SDS011;41970;48.774;9.280;2024-03-23T12:00:51;2.53;;;2.10;;
56102;SDS011;41970;48.774;9.280;2024-03-23T12:03:17;2.50;;;1.90;;
56102;SDS011;41970;48.774;9.280;2024-03-23T12:05:49;3.70;;;2.40;;
56102;SDS011;41970;48.774;9.280;2024-03-23T12:11:05;4.30;;;1.70;;
56102;SDS011;41970;48.774;9.280;2024-03-23T12:13:39;4.13;;;1.50;;
56102;SDS011;41970;48.774;9.280;2024-03-23T12:16:17;2.60;;;1.60;;
56102;SDS011;41970;48.774;9.280;2024-03-23T12:18:49;2.07;;;1.83;;
56102;SDS011;41970;48.774;9.280;2024-03-23T12:21:20;4.63;;;2.40;;
56102;SDS011;41970;48.774;9.280;2024-03-23T12:23:47;5.03;;;1.60;;
56102;SDS011;41970;48.774;9.280;2024-03-23T12:26:15;3.60;;;1.77;;
56102;SDS011;41970;48.774;9.280;2024-03-23T12:28:42;4.67;;;2.03;;
56102;SDS011;41970;48.774;9.280;2024-03-23T12:31:08;3.57;;;2.23;;
56102;SDS011;41970;48.774;9.280;2024-03-23T12:33:33;4.73;;;1.90;;
56102;SDS011;41970;48.774;9.280;2024-03-23T12:35:59;5.73;;;1.60;;
56102;SDS011;41970;48.774;9.280;2024-03-23T12:38:25;5.10;;;2.17;;
56102;SDS011;41970;48.774;9.280;2024-03-23T12:40:51;4.80;;;2.07;;
56102;SDS011;41970;48.774;9.280;2024-03-23T12:43:18;4.40;;;1.67;;
56102;SDS011;41970;48.774;9.280;2024-03-23T12:45:47;7.93;;;2.67;;
56102;SDS011;41970;48.774;9.280;2024-03-23T12:48:13;4.30;;;1.80;;
56102;SDS011;41970;48.774;9.280;2024-03-23T12:50:39;5.93;;;1.97;;
56102;SDS011;41970;48.774;9.280;2024-03-23T12:53:05;3.50;;;1.90;;
56102;SDS011;41970;48.774;9.280;2024-03-23T12:55:31;2.93;;;1.77;;
56102;SDS011;41970;48.774;9.280;2024-03-23T12:57:56;5.80;;;2.33;;
56102;SDS011;41970;48.774;9.280;2024-03-23T13:00:22;16.07;;;10.10;;
56102;SDS011;41970;48.774;9.280;2024-03-23T13:02:48;4.50;;;2.63;;
56102;SDS011;41970;48.774;9.280;2024-03-23T13:05:14;6.80;;;2.80;;
56102;SDS011;41970;48.774;9.280;2024-03-23T13:07:40;5.77;;;2.47;;
56102;SDS011;41970;48.774;9.280;2024-03-23T13:10:05;5.10;;;2.43;;
56102;SDS011;41970;48.774;9.280;2024-03-23T13:12:32;5.10;;;2.23;;
56102;SDS011;41970;48.774;9.280;2024-03-23T13:14:58;7.37;;;2.10;;
56102;SDS011;41970;48.774;9.280;2024-03-23T13:17:25;5.40;;;2.37;;
56102;SDS011;41970;48.774;9.280;2024-03-23T13:19:52;4.53;;;1.70;;
56102;SDS011;41970;48.774;9.280;2024-03-23T13:22:18;4.00;;;2.00;;
56102;SDS011;41970;48.774;9.280;2024-03-23T13:24:44;5.47;;;2.63;;
56102;SDS011;41970;48.774;9.280;2024-03-23T13:27:10;6.87;;;3.30;;
56102;SDS011;41970;48.774;9.280;2024-03-23T13:29:36;5.13;;;2.33;;
56102;SDS011;41970;48.774;9.280;2024-03-23T13:32:05;3.83;;;3.00;;
56102;SDS011;41970;48.774;9.280;2024-03-23T13:34:31;4.60;;;2.37;;
56102;SDS011;41970;48.774;9.280;2024-03-23T13:36:58;3.00;;;2.20;;
56102;SDS011;41970;48.774;9.280;2024-03-23T13:39:24;8.40;;;2.73;;
56102;SDS011;41970;48.774;9.280;2024-03-23T13:41:52;4.63;;;2.20;;
56102;SDS011;41970;48.774;9.280;2024-03-23T13:44:19;4.60;;;2.10;;
56102;SDS011;41970;48.774;9.280;2024-03-23T13:46:45;4.97;;;2.07;;
56102;SDS011;41970;48.774;9.280;2024-03-23T13:49:24;5.03;;;2.20;;
56102;SDS011;41970;48.774;9.280;2024-03-23T13:51:57;3.97;;;1.60;;
56102;SDS011;41970;48.774;9.280;2024-03-23T13:54:25;5.70;;;1.80;;
56102;SDS011;41970;48.774;9.280;2024-03-23T13:56:51;3.90;;;1.97;;
56102;SDS011;41970;48.774;9.280;2024-03-23T13:59:18;4.40;;;1.90;;
56102;SDS011;41970;48.774;9.280;2024-03-23T14:01:44;4.33;;;1.73;;
56102;SDS011;41970;48.774;9.280;2024-03-23T14:04:13;3.63;;;2.13;;
56102;SDS011;41970;48.774;9.280;2024-03-23T14:06:41;3.37;;;1.80;;
56102;SDS011;41970;48.774;9.280;2024-03-23T14:09:07;3.07;;;1.60;;
56102;SDS011;41970;48.774;9.280;2024-03-23T14:11:36;3.40;;;1.80;;
56102;SDS011;41970;48.774;9.280;2024-03-23T14:14:02;12.90;;;2.20;;
56102;SDS011;41970;48.774;9.280;2024-03-23T14:16:29;3.40;;;1.80;;
56102;SDS011;41970;48.774;9.280;2024-03-23T14:18:58;3.40;;;1.50;;
56102;SDS011;41970;48.774;9.280;2024-03-23T14:21:24;2.47;;;1.60;;
56102;SDS011;41970;48.774;9.280;2024-03-23T14:23:50;2.00;;;1.20;;
56102;SDS011;41970;48.774;9.280;2024-03-23T14:26:16;2.10;;;1.50;;
56102;SDS011;41970;48.774;9.280;2024-03-23T14:28:41;4.60;;;1.60;;
56102;SDS011;41970;48.774;9.280;2024-03-23T14:31:07;8.67;;;1.83;;
56102;SDS011;41970;48.774;9.280;2024-03-23T14:33:36;1.80;;;1.30;;
56102;SDS011;41970;48.774;9.280;2024-03-23T14:36:02;2.73;;;1.20;;
56102;SDS011;41970;48.774;9.280;2024-03-23T14:38:29;1.53;;;1.13;;
56102;SDS011;41970;48.774;9.280;2024-03-23T14:40:59;2.03;;;1.10;;
56102;SDS011;41970;48.774;9.280;2024-03-23T14:43:26;1.70;;;1.37;;
56102;SDS011;41970;48.774;9.280;2024-03-23T14:48:47;2.70;;;1.20;;
56102;SDS011;41970;48.774;9.280;2024-03-23T14:51:13;2.13;;;1.27;;
56102;SDS011;41970;48.774;9.280;2024-03-23T14:53:39;2.77;;;1.50;;
56102;SDS011;41970;48.774;9.280;2024-03-23T14:56:09;3.30;;;1.53;;
56102;SDS011;41970;48.774;9.280;2024-03-23T14:58:38;1.70;;;1.17;;
56102;SDS011;41970;48.774;9.280;2024-03-23T15:01:04;2.20;;;1.30;;
56102;SDS011;41970;48.774;9.280;2024-03-23T15:03:34;1.70;;;1.30;;
56102;SDS011;41970;48.774;9.280;2024-03-23T15:06:08;2.17;;;1.57;;
56102;SDS011;41970;48.774;9.280;2024-03-23T15:08:36;2.23;;;1.40;;
56102;SDS011;41970;48.774;9.280;2024-03-23T15:11:03;1.73;;;1.20;;
56102;SDS011;41970;48.774;9.280;2024-03-23T15:13:33;2.63;;;1.27;;
56102;SDS011;41970;48.774;9.280;2024-03-23T15:16:02;3.60;;;1.30;;
56102;SDS011;41970;48.774;9.280;2024-03-23T15:18:29;3.43;;;1.00;;
56102;SDS011;41970;48.774;9.280;2024-03-23T15:20:58;3.87;;;1.30;;
56102;SDS011;41970;48.774;9.280;2024-03-23T15:23:28;4.83;;;1.57;;
56102;SDS011;41970;48.774;9.280;2024-03-23T15:25:58;1.53;;;1.23;;
56102;SDS011;41970;48.774;9.280;2024-03-23T15:28:25;1.60;;;1.20;;
56102;SDS011;41970;48.774;9.280;2024-03-23T15:31:07;2.93;;;1.10;;
56102;SDS011;41970;48.774;9.280;2024-03-23T15:33:36;3.37;;;1.30;;
56102;SDS011;41970;48.774;9.280;2024-03-23T15:36:04;1.70;;;0.97;;
56102;SDS011;41970;48.774;9.280;2024-03-23T15:38:31;2.10;;;1.90;;
56102;SDS011;41970;48.774;9.280;2024-03-23T15:40:57;3.90;;;1.00;;
56102;SDS011;41970;48.774;9.280;2024-03-23T15:43:23;1.80;;;1.33;;
56102;SDS011;41970;48.774;9.280;2024-03-23T15:45:55;3.53;;;1.30;;
56102;SDS011;41970;48.774;9.280;2024-03-23T15:48:21;1.87;;;0.97;;